createdAt,value
2018-08-08T00:00:03.346Z,23.73
2018-08-08T00:02:31.782Z,23.67
2018-08-08T00:05:00.183Z,23.54
2018-08-08T00:07:28.623Z,23.68
2018-08-08T00:09:57.063Z,23.73
2018-08-08T00:12:25.543Z,23.79
2018-08-08T00:14:54.000Z,23.51
2018-08-08T00:17:22.425Z,23.33
2018-08-08T00:19:50.927Z,23.43
2018-08-08T00:22:19.328Z,23.56
2018-08-08T00:24:47.780Z,23.38
2018-08-08T00:27:16.455Z,23.46
2018-08-08T00:29:44.921Z,23.45
2018-08-08T00:32:13.414Z,23.51
2018-08-08T00:34:42.194Z,23.48
2018-08-08T00:37:10.643Z,23.42
2018-08-08T00:39:39.192Z,23.38
2018-08-08T00:42:08.041Z,23.51
2018-08-08T00:44:36.545Z,23.36
2018-08-08T00:47:05.013Z,23.49
2018-08-08T00:49:33.594Z,23.54
2018-08-08T00:52:02.050Z,23.63
2018-08-08T00:54:30.531Z,23.61
2018-08-08T00:56:59.051Z,23.54
2018-08-08T00:59:27.462Z,23.40
2018-08-08T01:01:55.871Z,23.45
2018-08-08T01:04:24.412Z,23.44
2018-08-08T01:06:52.970Z,23.39
2018-08-08T01:09:21.466Z,23.29
2018-08-08T01:11:49.935Z,23.29
2018-08-08T01:14:18.394Z,23.16
2018-08-08T01:16:46.877Z,23.20
2018-08-08T01:19:15.374Z,23.04
2018-08-08T01:21:43.900Z,23.00
2018-08-08T01:24:12.577Z,22.89
2018-08-08T01:26:41.266Z,22.90
2018-08-08T01:29:09.730Z,22.79
2018-08-08T01:31:38.256Z,22.85
2018-08-08T01:34:06.864Z,22.96
2018-08-08T01:36:35.879Z,22.83
2018-08-08T01:39:06.231Z,22.88
2018-08-08T01:41:34.691Z,22.71
2018-08-08T01:44:03.700Z,22.70
2018-08-08T01:46:32.131Z,22.83
2018-08-08T01:49:00.656Z,22.72
2018-08-08T01:51:29.083Z,22.55
2018-08-08T01:53:57.519Z,22.40
2018-08-08T01:56:26.119Z,22.56
2018-08-08T01:58:54.592Z,22.49
2018-08-08T02:01:23.063Z,22.41
2018-08-08T02:03:51.570Z,22.44
2018-08-08T02:06:20.090Z,22.37
2018-08-08T02:08:48.528Z,22.39
2018-08-08T02:11:17.007Z,22.47
2018-08-08T02:13:45.499Z,22.52
2018-08-08T02:16:14.392Z,22.52
2018-08-08T02:18:43.141Z,22.58
2018-08-08T02:21:11.603Z,22.51
2018-08-08T02:23:40.075Z,22.48
2018-08-08T02:26:08.899Z,22.64
2018-08-08T02:28:37.367Z,22.62
2018-08-08T02:31:05.958Z,22.65
2018-08-08T02:33:34.453Z,22.57
2018-08-08T02:36:03.903Z,22.55
2018-08-08T02:38:32.725Z,22.50
2018-08-08T02:41:01.348Z,22.37
2018-08-08T02:43:29.800Z,22.30
2018-08-08T02:45:58.592Z,22.19
2018-08-08T02:48:27.119Z,22.23
2018-08-08T02:50:55.624Z,22.11
2018-08-08T02:53:24.088Z,22.18
2018-08-08T02:55:52.524Z,22.77
2018-08-08T02:58:20.996Z,22.48
2018-08-08T03:00:49.464Z,22.46
2018-08-08T03:03:17.916Z,22.34
2018-08-08T03:05:46.698Z,22.50
2018-08-08T03:08:15.245Z,24.05
2018-08-08T03:10:44.032Z,24.31
2018-08-08T03:13:12.639Z,23.81
2018-08-08T03:15:41.118Z,23.83
2018-08-08T03:18:09.581Z,24.21
2018-08-08T03:20:38.187Z,23.57
2018-08-08T03:23:07.012Z,23.23
2018-08-08T03:25:35.506Z,24.54
2018-08-08T03:28:04.348Z,24.92
2018-08-08T03:30:32.798Z,24.24
2018-08-08T03:33:01.241Z,24.85
2018-08-08T03:35:29.739Z,24.84
2018-08-08T03:37:58.200Z,24.46
2018-08-08T03:40:26.644Z,24.98
2018-08-08T03:42:55.121Z,24.00
2018-08-08T03:45:23.598Z,23.21
2018-08-08T03:47:52.029Z,23.72
2018-08-08T03:50:20.446Z,22.69
2018-08-08T03:52:48.927Z,22.34
2018-08-08T03:55:17.452Z,22.40
2018-08-08T03:57:46.035Z,22.16
2018-08-08T04:00:16.963Z,22.14
2018-08-08T04:02:46.069Z,22.08
2018-08-08T04:05:14.441Z,21.96
2018-08-08T04:07:42.920Z,21.85
2018-08-08T04:10:11.987Z,22.02
2018-08-08T04:12:40.547Z,22.16
2018-08-08T04:15:13.715Z,22.19
2018-08-08T04:17:42.278Z,22.23
2018-08-08T04:20:11.295Z,22.04
2018-08-08T04:22:40.004Z,21.86
2018-08-08T04:25:11.454Z,22.46
2018-08-08T04:27:40.379Z,22.10
2018-08-08T04:30:11.037Z,22.21
2018-08-08T04:32:40.239Z,22.13
2018-08-08T04:35:09.457Z,22.35
2018-08-08T04:37:38.539Z,22.55
2018-08-08T04:40:09.088Z,22.43
2018-08-08T04:42:37.607Z,22.14
2018-08-08T04:45:06.657Z,21.96
2018-08-08T04:47:35.784Z,22.24
2018-08-08T04:50:04.814Z,22.34
2018-08-08T04:52:33.260Z,22.60
2018-08-08T04:55:01.739Z,22.65
2018-08-08T04:57:30.436Z,22.71
2018-08-08T04:59:58.986Z,22.84
2018-08-08T05:02:27.444Z,22.76
2018-08-08T05:04:56.610Z,22.47
2018-08-08T05:07:25.092Z,22.48
2018-08-08T05:09:53.715Z,22.61
2018-08-08T05:12:22.744Z,22.71
2018-08-08T05:14:51.207Z,23.03
2018-08-08T05:17:19.748Z,22.84
2018-08-08T05:19:48.469Z,22.79
2018-08-08T05:22:17.031Z,22.77
2018-08-08T05:24:45.743Z,23.07
2018-08-08T05:27:15.699Z,23.18
2018-08-08T05:29:44.223Z,23.37
2018-08-08T05:32:12.663Z,23.66
2018-08-08T05:34:41.181Z,23.64
2018-08-08T05:37:09.756Z,23.81
2018-08-08T05:39:38.264Z,23.82
2018-08-08T05:42:06.759Z,23.64
2018-08-08T05:44:35.579Z,23.84
2018-08-08T05:47:04.029Z,23.90
2018-08-08T05:49:32.711Z,24.07
2018-08-08T05:52:01.433Z,24.13
2018-08-08T05:54:29.906Z,24.03
2018-08-08T05:56:58.436Z,24.10
2018-08-08T05:59:26.945Z,24.19
2018-08-08T06:01:55.707Z,24.17
2018-08-08T06:05:26.991Z,24.20
2018-08-08T06:07:55.863Z,24.14
2018-08-08T06:10:24.580Z,24.25
2018-08-08T06:12:53.058Z,24.33
2018-08-08T06:15:21.511Z,24.32
2018-08-08T06:17:50.000Z,24.23
2018-08-08T06:20:19.995Z,24.50
2018-08-08T06:22:48.992Z,24.55
2018-08-08T06:25:17.917Z,24.82
2018-08-08T06:27:46.917Z,25.05
2018-08-08T06:30:23.513Z,25.14
2018-08-08T06:32:52.946Z,25.30
2018-08-08T06:35:23.785Z,25.32
2018-08-08T06:37:52.888Z,25.54
2018-08-08T06:40:21.529Z,25.83
2018-08-08T06:42:50.484Z,25.75
2018-08-08T06:45:23.184Z,25.47
2018-08-08T06:47:51.640Z,25.62
2018-08-08T06:50:20.183Z,25.91
2018-08-08T06:52:48.704Z,25.73
2018-08-08T06:55:17.801Z,25.77
2018-08-08T06:57:46.329Z,25.58
2018-08-08T07:00:19.356Z,26.01
2018-08-08T07:02:47.941Z,26.14
2018-08-08T07:05:17.844Z,25.83
2018-08-08T07:07:47.061Z,26.20
2018-08-08T07:10:15.791Z,26.17
2018-08-08T07:12:44.627Z,26.32
2018-08-08T07:15:14.631Z,26.62
2018-08-08T07:17:43.187Z,26.58
2018-08-08T07:20:12.929Z,26.52
2018-08-08T07:22:41.491Z,26.73
2018-08-08T07:25:12.159Z,26.76
2018-08-08T07:27:40.671Z,26.31
2018-08-08T07:30:14.572Z,26.98
2018-08-08T07:32:43.086Z,27.35
2018-08-08T07:35:12.477Z,26.88
2018-08-08T07:37:42.223Z,26.71
2018-08-08T07:40:12.360Z,27.38
2018-08-08T07:42:41.780Z,27.44
2018-08-08T07:45:18.511Z,27.06
2018-08-08T07:47:47.079Z,27.38
2018-08-08T07:50:42.341Z,27.16
2018-08-08T07:53:10.805Z,27.09
2018-08-08T07:55:39.287Z,28.14
2018-08-08T07:58:07.778Z,28.42
2018-08-08T08:00:36.252Z,28.63
2018-08-08T08:03:04.731Z,28.27
2018-08-08T08:05:33.126Z,28.68
2018-08-08T08:08:01.638Z,28.52
2018-08-08T08:10:30.064Z,29.29
2018-08-08T08:12:58.621Z,29.64
2018-08-08T08:15:26.971Z,29.44
2018-08-08T08:17:55.399Z,29.73
2018-08-08T08:20:23.802Z,30.15
2018-08-08T08:22:52.651Z,30.06
2018-08-08T08:25:21.375Z,29.58
2018-08-08T08:27:49.810Z,29.32
2018-08-08T08:30:19.755Z,30.15
2018-08-08T08:32:48.569Z,30.07
2018-08-08T08:35:17.046Z,30.27
2018-08-08T08:37:45.496Z,30.43
2018-08-08T08:40:14.660Z,30.62
2018-08-08T08:42:44.140Z,30.76
2018-08-08T08:45:13.153Z,30.75
2018-08-08T08:47:42.642Z,30.25
2018-08-08T08:51:13.799Z,30.84
2018-08-08T08:53:42.411Z,30.47
2018-08-08T08:56:10.839Z,30.67
2018-08-08T08:58:39.259Z,30.25
2018-08-08T09:01:08.128Z,30.54
2018-08-08T09:03:36.588Z,30.55
2018-08-08T09:06:05.276Z,30.48
2018-08-08T09:08:33.695Z,30.98
2018-08-08T09:11:02.121Z,30.88
2018-08-08T09:13:30.563Z,31.05
2018-08-08T09:15:59.040Z,30.81
2018-08-08T09:18:27.487Z,30.33
2018-08-08T09:20:56.141Z,31.04
2018-08-08T09:23:24.570Z,31.30
2018-08-08T09:25:52.986Z,31.39
2018-08-08T09:28:21.902Z,30.82
2018-08-08T09:30:50.653Z,31.25
2018-08-08T09:33:24.430Z,31.66
2018-08-08T09:35:53.055Z,31.76
2018-08-08T09:38:21.475Z,31.30
2018-08-08T09:40:50.413Z,31.42
2018-08-08T09:43:18.859Z,31.24
2018-08-08T09:45:47.274Z,32.05
2018-08-08T09:48:16.138Z,31.75
2018-08-08T09:50:44.584Z,31.63
2018-08-08T09:53:13.047Z,31.85
2018-08-08T09:55:41.488Z,32.12
2018-08-08T09:58:09.934Z,31.83
2018-08-08T10:00:43.423Z,31.92
2018-08-08T10:03:16.146Z,32.22
2018-08-08T10:05:44.614Z,32.63
2018-08-08T10:08:13.041Z,31.97
2018-08-08T10:10:41.500Z,32.44
2018-08-08T10:13:09.984Z,32.43
2018-08-08T10:15:38.444Z,32.14
2018-08-08T10:18:07.340Z,32.55
2018-08-08T10:20:35.750Z,32.62
2018-08-08T10:23:04.214Z,32.49
2018-08-08T10:25:32.651Z,32.43
2018-08-08T10:28:01.135Z,32.46
2018-08-08T10:30:29.567Z,32.65
2018-08-08T10:32:58.017Z,32.64
2018-08-08T10:35:26.473Z,33.10
2018-08-08T10:37:54.968Z,33.20
2018-08-08T10:40:23.449Z,32.79
2018-08-08T10:42:51.895Z,33.18
2018-08-08T10:45:20.339Z,32.87
2018-08-08T10:47:49.081Z,33.44
2018-08-08T10:50:17.557Z,32.42
2018-08-08T10:52:46.158Z,33.37
2018-08-08T10:55:14.576Z,33.14
2018-08-08T10:57:43.097Z,33.36
2018-08-08T11:00:11.919Z,34.06
2018-08-08T11:02:40.884Z,34.36
2018-08-08T11:05:09.603Z,34.44
2018-08-08T11:07:38.292Z,33.98
2018-08-08T11:10:07.342Z,34.27
2018-08-08T11:12:35.805Z,33.08
2018-08-08T11:15:05.011Z,33.20
2018-08-08T11:17:33.660Z,33.31
2018-08-08T11:20:02.108Z,33.32
2018-08-08T11:22:30.759Z,34.29
2018-08-08T11:24:59.187Z,33.44
2018-08-08T11:27:27.676Z,33.24
2018-08-08T11:29:56.087Z,33.80
2018-08-08T11:32:24.595Z,33.46
2018-08-08T11:34:53.327Z,33.88
2018-08-08T11:37:21.835Z,35.39
2018-08-08T11:39:50.285Z,35.33
2018-08-08T11:42:18.695Z,35.49
2018-08-08T11:44:47.194Z,34.86
2018-08-08T11:47:15.647Z,36.17
2018-08-08T11:49:44.088Z,36.23
2018-08-08T11:52:12.627Z,36.31
2018-08-08T11:54:40.984Z,35.97
2018-08-08T11:57:09.423Z,36.01
2018-08-08T11:59:37.863Z,37.41
2018-08-08T12:02:07.209Z,36.95
2018-08-08T12:04:35.680Z,36.89
2018-08-08T12:07:04.573Z,37.31
2018-08-08T12:09:33.060Z,35.77
2018-08-08T12:12:01.505Z,38.09
2018-08-08T12:14:30.176Z,37.92
2018-08-08T12:16:58.895Z,38.85
2018-08-08T12:19:27.331Z,38.08
2018-08-08T12:21:55.960Z,39.52
2018-08-08T12:24:24.375Z,39.83
2018-08-08T12:26:52.896Z,39.64
2018-08-08T12:29:21.344Z,39.78
2018-08-08T12:31:49.767Z,37.71
2018-08-08T12:34:18.242Z,36.95
2018-08-08T12:36:46.660Z,39.10
2018-08-08T12:39:15.253Z,38.83
2018-08-08T12:41:43.663Z,38.21
2018-08-08T12:44:12.163Z,39.49
2018-08-08T12:46:40.578Z,40.14
2018-08-08T12:49:09.026Z,40.18
2018-08-08T12:51:37.462Z,38.93
2018-08-08T12:54:05.901Z,38.45
2018-08-08T12:56:34.388Z,36.57
2018-08-08T12:59:02.804Z,38.42
2018-08-08T13:01:31.311Z,36.81
2018-08-08T13:03:59.787Z,39.52
2018-08-08T13:06:28.368Z,39.64
2018-08-08T13:08:56.862Z,39.75
2018-08-08T13:11:25.606Z,38.04
2018-08-08T13:13:54.120Z,38.73
2018-08-08T13:16:22.569Z,38.32
2018-08-08T13:18:50.947Z,39.09
2018-08-08T13:21:19.396Z,39.01
2018-08-08T13:23:47.985Z,39.96
2018-08-08T13:26:16.374Z,40.00
2018-08-08T13:28:45.822Z,40.86
2018-08-08T13:31:14.303Z,40.97
2018-08-08T13:33:42.757Z,40.14
2018-08-08T13:36:11.185Z,38.82
2018-08-08T13:38:39.781Z,39.52
2018-08-08T13:41:08.187Z,39.36
2018-08-08T13:43:36.790Z,39.71
2018-08-08T13:46:05.257Z,38.31
2018-08-08T13:48:33.792Z,38.38
2018-08-08T13:51:02.302Z,38.93
2018-08-08T13:53:30.748Z,37.96
2018-08-08T13:55:59.216Z,38.42
2018-08-08T13:58:27.719Z,38.11
2018-08-08T14:00:56.199Z,39.13
2018-08-08T14:03:24.591Z,38.78
2018-08-08T14:05:53.047Z,39.17
2018-08-08T14:08:21.455Z,39.00
2018-08-08T14:10:49.952Z,38.74
2018-08-08T14:13:24.633Z,39.03
2018-08-08T14:15:53.163Z,39.89
2018-08-08T14:18:21.516Z,40.11
2018-08-08T14:20:49.959Z,41.63
2018-08-08T14:23:18.375Z,41.11
2018-08-08T14:25:46.798Z,40.41
2018-08-08T14:28:15.251Z,38.44
2018-08-08T14:30:43.675Z,39.86
2018-08-08T14:33:13.339Z,40.66
2018-08-08T14:35:41.853Z,39.29
2018-08-08T14:38:10.253Z,40.71
2018-08-08T14:40:38.683Z,41.08
2018-08-08T14:43:07.130Z,41.09
2018-08-08T14:45:35.618Z,41.72
2018-08-08T14:48:04.452Z,40.71
2018-08-08T14:50:33.003Z,38.55
2018-08-08T14:53:01.415Z,38.24
2018-08-08T14:55:30.353Z,39.15
2018-08-08T14:57:58.854Z,38.88
2018-08-08T15:00:27.297Z,41.60
2018-08-08T15:02:55.997Z,39.39
2018-08-08T15:05:24.447Z,37.81
2018-08-08T15:07:53.043Z,38.33
2018-08-08T15:10:21.468Z,38.75
2018-08-08T15:12:49.901Z,38.84
2018-08-08T15:15:18.444Z,38.79
2018-08-08T15:17:46.960Z,39.71
2018-08-08T15:20:15.381Z,40.46
2018-08-08T15:22:43.862Z,40.76
2018-08-08T15:25:12.389Z,41.23
2018-08-08T15:27:40.904Z,40.60
2018-08-08T15:30:11.201Z,40.20
2018-08-08T15:32:40.218Z,40.41
2018-08-08T15:35:08.688Z,40.87
2018-08-08T15:37:37.682Z,39.06
2018-08-08T15:40:06.797Z,38.09
2018-08-08T15:42:35.598Z,37.19
2018-08-08T15:45:05.352Z,37.42
2018-08-08T15:47:34.039Z,37.64
2018-08-08T15:50:02.480Z,37.65
2018-08-08T15:52:30.887Z,38.75
2018-08-08T15:54:59.390Z,39.74
2018-08-08T16:00:02.659Z,40.81
2018-08-08T16:02:31.164Z,39.97
2018-08-08T16:04:59.615Z,40.26
2018-08-08T16:07:28.055Z,38.08
2018-08-08T16:09:56.558Z,37.60
2018-08-08T16:12:25.013Z,37.94
2018-08-08T16:14:53.674Z,38.86
2018-08-08T16:17:22.096Z,38.42
2018-08-08T16:19:50.508Z,38.88
2018-08-08T16:22:19.286Z,38.55
2018-08-08T16:24:47.676Z,39.04
2018-08-08T16:27:16.111Z,38.63
2018-08-08T16:29:44.610Z,38.67
2018-08-08T16:32:13.063Z,38.29
2018-08-08T16:34:42.425Z,38.81
2018-08-08T16:37:10.825Z,39.56
2018-08-08T16:39:39.318Z,40.72
2018-08-08T16:42:07.767Z,39.54
2018-08-08T16:44:36.461Z,39.09
2018-08-08T16:47:04.891Z,38.63
2018-08-08T16:49:34.088Z,38.60
2018-08-08T16:52:02.875Z,37.60
2018-08-08T16:54:31.324Z,37.79
2018-08-08T16:57:00.420Z,39.36
2018-08-08T16:59:29.222Z,40.02
2018-08-08T17:01:57.623Z,40.69
2018-08-08T17:04:26.076Z,40.59
2018-08-08T17:06:54.491Z,39.74
2018-08-08T17:09:23.055Z,38.75
2018-08-08T17:11:51.533Z,37.63
2018-08-08T17:14:19.999Z,36.85
2018-08-08T17:16:48.847Z,37.13
2018-08-08T17:19:17.474Z,37.78
2018-08-08T17:21:45.868Z,37.43
2018-08-08T17:24:14.303Z,38.53
2018-08-08T17:26:42.759Z,37.13
2018-08-08T17:29:11.263Z,37.59
2018-08-08T17:31:39.727Z,37.94
2018-08-08T17:34:08.336Z,38.28
2018-08-08T17:36:36.786Z,38.64
2018-08-08T17:39:07.827Z,38.27
2018-08-08T17:41:36.292Z,38.04
2018-08-08T17:44:05.129Z,37.21
2018-08-08T17:46:33.694Z,36.85
2018-08-08T17:49:02.161Z,37.24
2018-08-08T17:51:30.601Z,36.82
2018-08-08T17:53:59.183Z,35.98
2018-08-08T17:56:27.704Z,35.77
2018-08-08T17:58:56.099Z,35.72
2018-08-08T18:01:24.599Z,35.45
2018-08-08T18:03:54.058Z,34.84
2018-08-08T18:06:22.523Z,34.14
2018-08-08T18:08:51.292Z,33.20
2018-08-08T18:11:19.724Z,33.03
2018-08-08T18:13:48.244Z,32.79
2018-08-08T18:16:16.656Z,32.34
2018-08-08T18:18:45.086Z,32.14
2018-08-08T18:21:13.600Z,32.09
2018-08-08T18:23:42.048Z,31.93
2018-08-08T18:26:10.567Z,31.78
2018-08-08T18:28:38.989Z,31.65
2018-08-08T18:31:07.555Z,31.48
2018-08-08T18:33:36.235Z,31.34
2018-08-08T18:36:04.720Z,31.13
2018-08-08T18:38:33.137Z,30.93
2018-08-08T18:41:01.583Z,30.68
2018-08-08T18:43:30.005Z,30.48
2018-08-08T18:45:58.707Z,30.49
2018-08-08T18:48:27.656Z,30.25
2018-08-08T18:50:56.367Z,30.11
2018-08-08T18:53:24.851Z,30.06
2018-08-08T18:55:53.302Z,29.96
2018-08-08T18:58:21.809Z,29.86
2018-08-08T19:00:50.244Z,29.90
2018-08-08T19:03:18.653Z,29.83
2018-08-08T19:05:47.120Z,29.72
2018-08-08T19:08:15.573Z,29.62
2018-08-08T19:10:44.255Z,29.55
2018-08-08T19:13:12.719Z,29.49
2018-08-08T19:15:41.536Z,29.59
2018-08-08T19:18:10.036Z,29.58
2018-08-08T19:20:38.679Z,29.59
2018-08-08T19:23:07.144Z,29.64
2018-08-08T19:25:35.568Z,29.16
2018-08-08T19:28:04.017Z,29.32
2018-08-08T19:30:32.603Z,29.07
2018-08-08T19:33:01.051Z,29.13
2018-08-08T19:35:29.479Z,29.02
2018-08-08T19:37:57.932Z,28.98
2018-08-08T19:40:27.303Z,28.97
2018-08-08T19:42:55.730Z,29.06
2018-08-08T19:45:24.161Z,29.01
2018-08-08T19:47:52.563Z,28.87
2018-08-08T19:50:21.009Z,28.92
2018-08-08T19:52:49.690Z,28.73
2018-08-08T19:55:18.326Z,28.54
2018-08-08T19:57:46.740Z,28.48
2018-08-08T20:00:15.598Z,28.43
2018-08-08T20:02:44.027Z,28.39
2018-08-08T20:05:12.460Z,28.45
2018-08-08T20:07:40.896Z,28.46
2018-08-08T20:10:09.369Z,28.27
2018-08-08T20:12:37.971Z,28.21
2018-08-08T20:15:06.524Z,28.15
2018-08-08T20:17:34.990Z,28.19
2018-08-08T20:20:04.002Z,28.20
2018-08-08T20:22:32.461Z,28.14
2018-08-08T20:25:01.107Z,27.92
2018-08-08T20:27:29.770Z,27.84
2018-08-08T20:29:58.247Z,27.95
2018-08-08T20:32:26.718Z,27.90
2018-08-08T20:34:55.140Z,27.86
2018-08-08T20:37:23.598Z,27.69
2018-08-08T20:39:52.038Z,27.71
2018-08-08T20:42:21.186Z,27.81
2018-08-08T20:44:49.972Z,27.76
2018-08-08T20:47:18.405Z,27.72
2018-08-08T20:49:46.874Z,27.70
2018-08-08T20:52:15.349Z,27.70
2018-08-08T20:54:43.780Z,27.67
2018-08-08T20:57:13.843Z,27.89
2018-08-08T20:59:42.291Z,27.91
2018-08-08T21:02:11.262Z,27.87
2018-08-08T21:04:39.725Z,27.86
2018-08-08T21:07:08.487Z,27.73
2018-08-08T21:09:36.971Z,27.60
2018-08-08T21:12:05.440Z,27.54
2018-08-08T21:14:33.875Z,27.32
2018-08-08T21:17:03.317Z,27.31
2018-08-08T21:19:31.930Z,27.43
2018-08-08T21:22:00.357Z,27.23
2018-08-08T21:24:28.959Z,27.40
2018-08-08T21:26:57.413Z,27.48
2018-08-08T21:29:26.063Z,27.20
2018-08-08T21:31:55.130Z,27.05
2018-08-08T21:34:23.744Z,27.21
2018-08-08T21:36:52.162Z,27.07
2018-08-08T21:39:20.830Z,26.94
2018-08-08T21:41:49.222Z,26.88
2018-08-08T21:44:17.919Z,27.06
2018-08-08T21:46:46.336Z,26.85
2018-08-08T21:49:14.784Z,26.86
2018-08-08T21:51:43.336Z,26.96
2018-08-08T21:54:22.896Z,26.78
2018-08-08T21:57:02.439Z,26.49
2018-08-08T22:01:43.660Z,26.50
2018-08-08T22:04:23.298Z,26.37
2018-08-08T22:07:03.055Z,26.47
2018-08-08T22:09:42.856Z,26.37
2018-08-08T22:14:25.859Z,26.26
2018-08-08T22:17:05.427Z,26.32
2018-08-08T22:19:39.629Z,26.14
2018-08-08T22:22:08.935Z,26.13
2018-08-08T22:24:37.878Z,26.17
2018-08-08T22:27:06.397Z,26.13
2018-08-08T22:29:35.187Z,26.04
2018-08-08T22:32:03.765Z,25.97
2018-08-08T22:34:32.206Z,25.95
2018-08-08T22:37:00.740Z,26.17
2018-08-08T22:39:29.373Z,26.22
2018-08-08T22:41:57.829Z,26.16
2018-08-08T22:44:26.297Z,25.95
2018-08-08T22:46:54.992Z,26.06
2018-08-08T22:49:23.547Z,26.11
2018-08-08T22:51:52.108Z,25.89
2018-08-08T22:54:20.549Z,25.79
2018-08-08T22:56:49.032Z,25.91
2018-08-08T22:59:17.485Z,25.83
2018-08-08T23:01:45.923Z,25.62
2018-08-08T23:04:14.388Z,25.42
2018-08-08T23:06:42.904Z,25.58
2018-08-08T23:09:12.563Z,25.49
2018-08-08T23:11:41.307Z,25.62
2018-08-08T23:14:10.016Z,25.23
2018-08-08T23:16:38.837Z,25.13
2018-08-08T23:19:07.337Z,25.06
2018-08-08T23:21:35.832Z,25.20
2018-08-08T23:24:04.309Z,24.96
2018-08-08T23:26:33.674Z,25.09
2018-08-08T23:29:02.128Z,25.06
2018-08-08T23:31:30.642Z,25.01
2018-08-08T23:35:01.634Z,25.08
2018-08-08T23:37:30.244Z,24.94
2018-08-08T23:39:58.655Z,25.03
2018-08-08T23:42:27.066Z,25.01
2018-08-08T23:44:55.521Z,24.81
2018-08-08T23:47:23.966Z,24.61
2018-08-08T23:49:52.397Z,24.68
2018-08-08T23:52:20.846Z,24.86
2018-08-08T23:54:49.625Z,24.77
2018-08-08T23:57:18.074Z,24.84
2018-08-08T23:59:46.512Z,24.93
